CES2367 ZLXY-ZBTJ
Flight info
| Callsign | CES2367 |
|---|---|
| Flight time | N/A |
| Altitude | 33100 |
| Route | K0826S1070 WJC9Z WJC G212 TEKIL W85 OMDEK OMDEK5R |
| Aircraft | A321/M-SDE3FGHIRWY/LB1 |
Departure
| Time | 2026-05-09 05:26 |
|---|---|
| Airport | Xi'an Xianyang International Airport (ZLXY) |
Arrival
| Time | N/A |
|---|---|
| Airport | Tianjin Binhai International Airport (ZBTJ) |
| Time | Latitude | Longitude | Altitude | Speed | Heading |
|---|---|---|---|---|---|
| 2026-05-09 05:14 | 34.43285 | 108.75813 | 1576 ft | 0 kts | 49° |
| 2026-05-09 05:18 | 34.43280 | 108.75806 | 1575 ft | 2 kts | 49° |
| 2026-05-09 05:19 | 34.43270 | 108.75793 | 1575 ft | 2 kts | 48° |
| 2026-05-09 05:19 | 34.43261 | 108.75779 | 1575 ft | 2 kts | 49° |
| 2026-05-09 05:19 | 34.43250 | 108.75765 | 1575 ft | 2 kts | 62° |
| 2026-05-09 05:19 | 34.43248 | 108.75747 | 1575 ft | 2 kts | 100° |
| 2026-05-09 05:20 | 34.43254 | 108.75731 | 1575 ft | 1 kts | 134° |
| 2026-05-09 05:20 | 34.43258 | 108.75726 | 1575 ft | 1 kts | 144° |
| 2026-05-09 05:20 | 34.43261 | 108.75724 | 1575 ft | 0 kts | 141° |
| 2026-05-09 05:22 | 34.43247 | 108.75737 | 1575 ft | 6 kts | 141° |
| 2026-05-09 05:22 | 34.43192 | 108.75795 | 1575 ft | 14 kts | 137° |
| 2026-05-09 05:22 | 34.43094 | 108.75900 | 1575 ft | 23 kts | 141° |
| 2026-05-09 05:22 | 34.42970 | 108.75838 | 1575 ft | 21 kts | 230° |
| 2026-05-09 05:23 | 34.42871 | 108.75697 | 1575 ft | 23 kts | 229° |
| 2026-05-09 05:23 | 34.42760 | 108.75543 | 1575 ft | 25 kts | 229° |
| 2026-05-09 05:23 | 34.42632 | 108.75365 | 1575 ft | 29 kts | 229° |
| 2026-05-09 05:23 | 34.42506 | 108.75191 | 1575 ft | 26 kts | 229° |
| 2026-05-09 05:24 | 34.42393 | 108.75033 | 1575 ft | 23 kts | 229° |
| 2026-05-09 05:24 | 34.42273 | 108.74941 | 1575 ft | 20 kts | 148° |
| 2026-05-09 05:24 | 34.42169 | 108.75047 | 1575 ft | 18 kts | 139° |
| 2026-05-09 05:24 | 34.42142 | 108.75165 | 1576 ft | 0 kts | 51° |
| 2026-05-09 05:25 | 34.42212 | 108.75260 | 1575 ft | 42 kts | 50° |
| 2026-05-09 05:25 | 34.43241 | 108.76690 | 1642 ft | 167 kts | 50° |
| 2026-05-09 05:26 | 34.43968 | 108.77727 | 2372 ft | 160 kts | 50° |
| 2026-05-09 05:26 | 34.44674 | 108.78749 | 3058 ft | 159 kts | 51° |
| 2026-05-09 05:26 | 34.45361 | 108.79754 | 3576 ft | 157 kts | 50° |
| 2026-05-09 05:26 | 34.46091 | 108.80811 | 3800 ft | 168 kts | 50° |
| 2026-05-09 05:27 | 34.46864 | 108.81927 | 4016 ft | 180 kts | 50° |
| 2026-05-09 05:27 | 34.47702 | 108.83132 | 4276 ft | 192 kts | 50° |
| 2026-05-09 05:27 | 34.48596 | 108.84418 | 4547 ft | 205 kts | 50° |
| 2026-05-09 05:27 | 34.49539 | 108.85774 | 4821 ft | 219 kts | 50° |
| 2026-05-09 05:28 | 34.50551 | 108.87228 | 5050 ft | 237 kts | 50° |
| 2026-05-09 05:28 | 34.51658 | 108.88821 | 5330 ft | 255 kts | 50° |
| 2026-05-09 05:28 | 34.52873 | 108.90496 | 5699 ft | 270 kts | 42° |
| 2026-05-09 05:28 | 34.54497 | 108.91576 | 6280 ft | 274 kts | 16° |
| 2026-05-09 05:29 | 34.56390 | 108.92089 | 6820 ft | 283 kts | 11° |
| 2026-05-09 05:29 | 34.58367 | 108.92535 | 7329 ft | 292 kts | 11° |
| 2026-05-09 05:29 | 34.60382 | 108.93031 | 7832 ft | 302 kts | 12° |
| 2026-05-09 05:29 | 34.62471 | 108.93598 | 8340 ft | 311 kts | 13° |
| 2026-05-09 05:30 | 34.64607 | 108.94214 | 8844 ft | 320 kts | 13° |
| 2026-05-09 05:30 | 34.66792 | 108.94865 | 9347 ft | 328 kts | 14° |
| 2026-05-09 05:30 | 34.69042 | 108.95545 | 9853 ft | 336 kts | 14° |
| 2026-05-09 05:30 | 34.71321 | 108.96240 | 10354 ft | 343 kts | 14° |
| 2026-05-09 05:31 | 34.73645 | 108.96952 | 10855 ft | 350 kts | 14° |
| 2026-05-09 05:31 | 34.76039 | 108.97686 | 11361 ft | 356 kts | 14° |
| 2026-05-09 05:31 | 34.78448 | 108.98425 | 11863 ft | 361 kts | 14° |
| 2026-05-09 05:31 | 34.80918 | 108.99186 | 12369 ft | 366 kts | 14° |
| 2026-05-09 05:32 | 34.83373 | 109.00045 | 12862 ft | 370 kts | 17° |
| 2026-05-09 05:32 | 34.85860 | 109.01006 | 13117 ft | 382 kts | 18° |
| 2026-05-09 05:32 | 34.88435 | 109.02018 | 13337 ft | 394 kts | 18° |
| 2026-05-09 05:32 | 34.91090 | 109.03067 | 13543 ft | 405 kts | 18° |
| 2026-05-09 05:33 | 34.93793 | 109.04135 | 13857 ft | 413 kts | 18° |
| 2026-05-09 05:33 | 34.96520 | 109.05213 | 14334 ft | 415 kts | 18° |
| 2026-05-09 05:33 | 34.99269 | 109.06300 | 14817 ft | 417 kts | 18° |
| 2026-05-09 05:33 | 35.02032 | 109.07393 | 15271 ft | 420 kts | 18° |
| 2026-05-09 05:34 | 35.04839 | 109.08503 | 15718 ft | 423 kts | 18° |
| 2026-05-09 05:34 | 35.07657 | 109.09618 | 16156 ft | 426 kts | 18° |
| 2026-05-09 05:34 | 35.10473 | 109.10734 | 16582 ft | 428 kts | 18° |
| 2026-05-09 05:34 | 35.13319 | 109.11858 | 17000 ft | 431 kts | 18° |
| 2026-05-09 05:35 | 35.16161 | 109.12978 | 17406 ft | 433 kts | 18° |
| 2026-05-09 05:35 | 35.19038 | 109.14117 | 17805 ft | 436 kts | 18° |
| 2026-05-09 05:35 | 35.21930 | 109.15263 | 18194 ft | 438 kts | 18° |
| 2026-05-09 05:35 | 35.24841 | 109.16419 | 18573 ft | 441 kts | 18° |
| 2026-05-09 05:36 | 35.27763 | 109.17580 | 18943 ft | 443 kts | 18° |
| 2026-05-09 05:36 | 35.30731 | 109.18762 | 19308 ft | 445 kts | 18° |
| 2026-05-09 05:36 | 35.33686 | 109.19939 | 19660 ft | 448 kts | 18° |
| 2026-05-09 05:36 | 35.36651 | 109.21122 | 20001 ft | 450 kts | 18° |
| 2026-05-09 05:37 | 35.39634 | 109.22312 | 20336 ft | 452 kts | 18° |
| 2026-05-09 05:37 | 35.42626 | 109.23507 | 20664 ft | 454 kts | 18° |
| 2026-05-09 05:37 | 35.45623 | 109.24706 | 20987 ft | 456 kts | 18° |
| 2026-05-09 05:37 | 35.48631 | 109.25909 | 21295 ft | 459 kts | 18° |
| 2026-05-09 05:38 | 35.51687 | 109.27132 | 21599 ft | 461 kts | 18° |
| 2026-05-09 05:38 | 35.54718 | 109.28347 | 21893 ft | 463 kts | 18° |
| 2026-05-09 05:38 | 35.57809 | 109.29587 | 22190 ft | 465 kts | 18° |
| 2026-05-09 05:38 | 35.60875 | 109.30818 | 22471 ft | 466 kts | 18° |
| 2026-05-09 05:39 | 35.63971 | 109.32063 | 22743 ft | 468 kts | 18° |
| 2026-05-09 05:39 | 35.67083 | 109.33315 | 23011 ft | 470 kts | 18° |
| 2026-05-09 05:39 | 35.70171 | 109.34573 | 22859 ft | 471 kts | 15° |
| 2026-05-09 05:39 | 35.73264 | 109.35856 | 23390 ft | 467 kts | 14° |
| 2026-05-09 05:40 | 35.76214 | 109.37537 | 23772 ft | 474 kts | 26° |
| 2026-05-09 05:40 | 35.78860 | 109.39951 | 24183 ft | 481 kts | 37° |
| 2026-05-09 05:40 | 35.81115 | 109.43030 | 24556 ft | 487 kts | 47° |
| 2026-05-09 05:40 | 35.83134 | 109.46399 | 24991 ft | 486 kts | 49° |
| 2026-05-09 05:41 | 35.85096 | 109.49791 | 25352 ft | 486 kts | 50° |
| 2026-05-09 05:41 | 35.87044 | 109.53176 | 25695 ft | 486 kts | 50° |
| 2026-05-09 05:41 | 35.88986 | 109.56535 | 26045 ft | 485 kts | 49° |
| 2026-05-09 05:41 | 35.90949 | 109.59916 | 26392 ft | 484 kts | 49° |
| 2026-05-09 05:42 | 35.92908 | 109.63273 | 26753 ft | 484 kts | 49° |
| 2026-05-09 05:42 | 35.94867 | 109.66627 | 27074 ft | 484 kts | 49° |
| 2026-05-09 05:42 | 35.96835 | 109.70008 | 27360 ft | 484 kts | 50° |
| 2026-05-09 05:42 | 35.98771 | 109.73339 | 27682 ft | 483 kts | 50° |
| 2026-05-09 05:43 | 36.00727 | 109.76703 | 28057 ft | 481 kts | 49° |
| 2026-05-09 05:43 | 36.02683 | 109.80061 | 28416 ft | 480 kts | 49° |
| 2026-05-09 05:43 | 36.04611 | 109.83369 | 28716 ft | 479 kts | 49° |
| 2026-05-09 05:43 | 36.06564 | 109.86724 | 29013 ft | 479 kts | 49° |
| 2026-05-09 05:44 | 36.08511 | 109.90068 | 29319 ft | 478 kts | 49° |
| 2026-05-09 05:44 | 36.10450 | 109.93401 | 29576 ft | 478 kts | 49° |
| 2026-05-09 05:44 | 36.12383 | 109.96707 | 29824 ft | 479 kts | 49° |
| 2026-05-09 05:44 | 36.14334 | 110.00049 | 30111 ft | 479 kts | 49° |
| 2026-05-09 05:45 | 36.16258 | 110.03357 | 30361 ft | 479 kts | 49° |
| 2026-05-09 05:45 | 36.18209 | 110.06728 | 30605 ft | 479 kts | 49° |
| 2026-05-09 05:45 | 36.20137 | 110.10062 | 30826 ft | 479 kts | 49° |
| 2026-05-09 05:45 | 36.22068 | 110.13405 | 31047 ft | 480 kts | 48° |
| 2026-05-09 05:46 | 36.23994 | 110.16747 | 31256 ft | 481 kts | 49° |
| 2026-05-09 05:46 | 36.25932 | 110.20114 | 31481 ft | 481 kts | 48° |
| 2026-05-09 05:46 | 36.27881 | 110.23501 | 31672 ft | 482 kts | 48° |
| 2026-05-09 05:46 | 36.29829 | 110.26891 | 31829 ft | 484 kts | 48° |
| 2026-05-09 05:47 | 36.31761 | 110.30255 | 31970 ft | 486 kts | 48° |
| 2026-05-09 05:47 | 36.33714 | 110.33662 | 32155 ft | 487 kts | 48° |
| 2026-05-09 05:47 | 36.35679 | 110.37094 | 32332 ft | 488 kts | 48° |
| 2026-05-09 05:47 | 36.37649 | 110.40540 | 32484 ft | 489 kts | 48° |
| 2026-05-09 05:48 | 36.39624 | 110.43997 | 32634 ft | 491 kts | 48° |
| 2026-05-09 05:48 | 36.41581 | 110.47424 | 32794 ft | 492 kts | 48° |
| 2026-05-09 05:48 | 36.43565 | 110.50903 | 32918 ft | 494 kts | 48° |
| 2026-05-09 05:48 | 36.45551 | 110.54390 | 33077 ft | 494 kts | 48° |
| 2026-05-09 05:49 | 36.49501 | 110.61336 | 33113 ft | 495 kts | 48° |
| 2026-05-09 05:49 | 36.53448 | 110.68302 | 33137 ft | 495 kts | 49° |
| 2026-05-09 05:50 | 36.57388 | 110.75295 | 33152 ft | 495 kts | 49° |
| 2026-05-09 05:50 | 36.61336 | 110.82289 | 33184 ft | 494 kts | 49° |
| 2026-05-09 05:51 | 36.65293 | 110.89309 | 33194 ft | 495 kts | 49° |
| 2026-05-09 05:51 | 36.69230 | 110.96297 | 33198 ft | 494 kts | 49° |
| 2026-05-09 05:52 | 36.73443 | 111.02947 | 33215 ft | 489 kts | 42° |
| 2026-05-09 05:52 | 36.77964 | 111.09225 | 33212 ft | 487 kts | 41° |
| 2026-05-09 05:53 | 36.82484 | 111.15456 | 33217 ft | 486 kts | 41° |
| 2026-05-09 05:53 | 36.87020 | 111.21744 | 33221 ft | 486 kts | 41° |
| 2026-05-09 05:54 | 36.91503 | 111.27982 | 33232 ft | 486 kts | 42° |
| 2026-05-09 05:54 | 36.95999 | 111.34257 | 33213 ft | 485 kts | 41° |
| 2026-05-09 05:55 | 37.00501 | 111.40550 | 33207 ft | 485 kts | 42° |
| 2026-05-09 05:55 | 37.04992 | 111.46841 | 33180 ft | 484 kts | 42° |
| 2026-05-09 05:56 | 37.09455 | 111.53104 | 33167 ft | 484 kts | 41° |
| 2026-05-09 05:56 | 37.13931 | 111.59370 | 33165 ft | 484 kts | 41° |
| 2026-05-09 05:57 | 37.18412 | 111.65669 | 33151 ft | 482 kts | 43° |
| 2026-05-09 05:57 | 37.22804 | 111.72013 | 33137 ft | 486 kts | 45° |
| 2026-05-09 05:58 | 37.26756 | 111.78891 | 33112 ft | 491 kts | 52° |
| 2026-05-09 05:58 | 37.30116 | 111.86403 | 33126 ft | 495 kts | 58° |
| 2026-05-09 05:59 | 37.33213 | 111.94046 | 33128 ft | 494 kts | 58° |
| 2026-05-09 05:59 | 37.36336 | 112.01718 | 33127 ft | 493 kts | 58° |
| 2026-05-09 06:00 | 37.39450 | 112.09362 | 33115 ft | 494 kts | 58° |
| 2026-05-09 06:00 | 37.42577 | 112.17055 | 33099 ft | 493 kts | 58° |
| 2026-05-09 06:01 | 37.45686 | 112.24719 | 33100 ft | 493 kts | 57° |
| 2026-05-09 06:01 | 37.48792 | 112.32392 | 33088 ft | 493 kts | 58° |
| 2026-05-09 06:02 | 37.51876 | 112.40038 | 33089 ft | 493 kts | 58° |
| 2026-05-09 06:02 | 37.54967 | 112.47720 | 33077 ft | 493 kts | 57° |
| 2026-05-09 06:03 | 37.58066 | 112.55423 | 33060 ft | 493 kts | 57° |
| 2026-05-09 06:03 | 37.61152 | 112.63117 | 33055 ft | 493 kts | 58° |
| 2026-05-09 06:04 | 37.64235 | 112.70825 | 33043 ft | 494 kts | 58° |
| 2026-05-09 06:04 | 37.67306 | 112.78519 | 33055 ft | 494 kts | 58° |
| 2026-05-09 06:05 | 37.70386 | 112.86237 | 33053 ft | 493 kts | 58° |
| 2026-05-09 06:05 | 37.73455 | 112.93942 | 33072 ft | 493 kts | 58° |
| 2026-05-09 06:06 | 37.76533 | 113.01690 | 33076 ft | 494 kts | 58° |
| 2026-05-09 06:06 | 37.79591 | 113.09420 | 33103 ft | 494 kts | 58° |
| 2026-05-09 06:07 | 37.82657 | 113.17182 | 33114 ft | 494 kts | 58° |
| 2026-05-09 06:07 | 37.85715 | 113.24941 | 33116 ft | 494 kts | 58° |
| 2026-05-09 06:08 | 37.88749 | 113.32660 | 33108 ft | 494 kts | 58° |
| 2026-05-09 06:08 | 37.91799 | 113.40442 | 33091 ft | 494 kts | 58° |
| 2026-05-09 06:09 | 37.94846 | 113.48229 | 33061 ft | 495 kts | 58° |
| 2026-05-09 06:09 | 37.97881 | 113.56029 | 33047 ft | 495 kts | 58° |
| 2026-05-09 06:10 | 38.00910 | 113.63850 | 33034 ft | 494 kts | 58° |
| 2026-05-09 06:10 | 38.03915 | 113.71650 | 33026 ft | 495 kts | 59° |
| 2026-05-09 06:11 | 38.06932 | 113.79497 | 32985 ft | 496 kts | 58° |
| 2026-05-09 06:11 | 38.09951 | 113.87352 | 32958 ft | 495 kts | 59° |
| 2026-05-09 06:12 | 38.12982 | 113.95185 | 32921 ft | 495 kts | 58° |
| 2026-05-09 06:12 | 38.16002 | 114.03033 | 32887 ft | 497 kts | 59° |
| 2026-05-09 06:13 | 38.18990 | 114.10873 | 32870 ft | 497 kts | 59° |
| 2026-05-09 06:13 | 38.22022 | 114.18776 | 32856 ft | 498 kts | 58° |
| 2026-05-09 06:14 | 38.25041 | 114.26663 | 32840 ft | 498 kts | 59° |
| 2026-05-09 06:14 | 38.28066 | 114.34593 | 32840 ft | 497 kts | 59° |
| 2026-05-09 06:15 | 38.31063 | 114.42484 | 32841 ft | 498 kts | 59° |
| 2026-05-09 06:15 | 38.34061 | 114.50397 | 32848 ft | 498 kts | 59° |
| 2026-05-09 06:16 | 38.37067 | 114.58351 | 32845 ft | 499 kts | 59° |
| 2026-05-09 06:16 | 38.40055 | 114.66282 | 32848 ft | 498 kts | 60° |
| 2026-05-09 06:17 | 38.43052 | 114.74295 | 32844 ft | 500 kts | 60° |
| 2026-05-09 06:17 | 38.46023 | 114.82250 | 32846 ft | 499 kts | 60° |
| 2026-05-09 06:18 | 38.49018 | 114.90256 | 32842 ft | 499 kts | 60° |
| 2026-05-09 06:18 | 38.51979 | 114.98208 | 32835 ft | 499 kts | 60° |
| 2026-05-09 06:19 | 38.54954 | 115.06203 | 32833 ft | 499 kts | 60° |
| 2026-05-09 06:19 | 38.57730 | 115.14378 | 32826 ft | 505 kts | 68° |
| 2026-05-09 06:20 | 38.59058 | 115.23225 | 32834 ft | 512 kts | 84° |
| 2026-05-09 06:20 | 38.58587 | 115.32241 | 32827 ft | 514 kts | 100° |
| 2026-05-09 06:21 | 38.56652 | 115.41030 | 32832 ft | 514 kts | 108° |
| 2026-05-09 06:21 | 38.54534 | 115.49662 | 32835 ft | 514 kts | 107° |
| 2026-05-09 06:22 | 38.52495 | 115.58447 | 32834 ft | 514 kts | 104° |
| 2026-05-09 06:22 | 38.51636 | 115.67417 | 32837 ft | 512 kts | 87° |
| 2026-05-09 06:23 | 38.52678 | 115.76279 | 32839 ft | 505 kts | 70° |
| 2026-05-09 06:23 | 38.55435 | 115.84488 | 32846 ft | 505 kts | 58° |
| 2026-05-09 06:24 | 38.58779 | 115.92442 | 32463 ft | 511 kts | 57° |
| 2026-05-09 06:24 | 38.60418 | 115.96411 | 31817 ft | 506 kts | 58° |
| 2026-05-09 06:24 | 38.62021 | 116.00370 | 31156 ft | 502 kts | 58° |
| 2026-05-09 06:25 | 38.63578 | 116.04294 | 30676 ft | 496 kts | 61° |
| 2026-05-09 06:25 | 38.64768 | 116.08401 | 30266 ft | 493 kts | 71° |
| 2026-05-09 06:25 | 38.65384 | 116.12712 | 29867 ft | 493 kts | 82° |
| 2026-05-09 06:25 | 38.65451 | 116.17072 | 29472 ft | 490 kts | 90° |
| 2026-05-09 06:26 | 38.65305 | 116.21373 | 29072 ft | 483 kts | 91° |
| 2026-05-09 06:26 | 38.65130 | 116.25615 | 28675 ft | 478 kts | 91° |
| 2026-05-09 06:26 | 38.64981 | 116.29878 | 28274 ft | 477 kts | 90° |
| 2026-05-09 06:26 | 38.64936 | 116.34112 | 27880 ft | 489 kts | 86° |
| 2026-05-09 06:27 | 38.65231 | 116.38493 | 27479 ft | 496 kts | 79° |
| 2026-05-09 06:27 | 38.65894 | 116.42764 | 27086 ft | 495 kts | 72° |
| 2026-05-09 06:27 | 38.66848 | 116.47012 | 26684 ft | 494 kts | 70° |
| 2026-05-09 06:27 | 38.67876 | 116.51200 | 26293 ft | 494 kts | 69° |
| 2026-05-09 06:28 | 38.68896 | 116.55341 | 25902 ft | 496 kts | 69° |
| 2026-05-09 06:28 | 38.69926 | 116.59611 | 25500 ft | 502 kts | 70° |
| 2026-05-09 06:28 | 38.70925 | 116.63842 | 25112 ft | 502 kts | 70° |
| 2026-05-09 06:28 | 38.71924 | 116.68159 | 24691 ft | 502 kts | 71° |
| 2026-05-09 06:29 | 38.72895 | 116.72400 | 24279 ft | 502 kts | 71° |
| 2026-05-09 06:29 | 38.73871 | 116.76672 | 23869 ft | 503 kts | 71° |
| 2026-05-09 06:29 | 38.74851 | 116.80960 | 23454 ft | 497 kts | 71° |
| 2026-05-09 06:29 | 38.75816 | 116.85186 | 23046 ft | 486 kts | 71° |
| 2026-05-09 06:30 | 38.76755 | 116.89291 | 22646 ft | 481 kts | 71° |
| 2026-05-09 06:30 | 38.77685 | 116.93358 | 22246 ft | 482 kts | 71° |
| 2026-05-09 06:30 | 38.78630 | 116.97491 | 21841 ft | 483 kts | 71° |
| 2026-05-09 06:30 | 38.79576 | 117.01600 | 21440 ft | 483 kts | 70° |
| 2026-05-09 06:31 | 38.80990 | 117.05437 | 21012 ft | 477 kts | 52° |
| 2026-05-09 06:31 | 38.83264 | 117.08431 | 20547 ft | 461 kts | 32° |
| 2026-05-09 06:31 | 38.86058 | 117.10162 | 20082 ft | 440 kts | 11° |
| 2026-05-09 06:31 | 38.89048 | 117.10474 | 19613 ft | 421 kts | 349° |
| 2026-05-09 06:32 | 38.91759 | 117.09385 | 19133 ft | 412 kts | 328° |
| 2026-05-09 06:32 | 38.94042 | 117.07221 | 18677 ft | 408 kts | 312° |
| 2026-05-09 06:32 | 38.95765 | 117.04339 | 18181 ft | 405 kts | 297° |
| 2026-05-09 06:33 | 38.97053 | 116.97487 | 17237 ft | 394 kts | 267° |
| 2026-05-09 06:33 | 38.96545 | 116.94081 | 16765 ft | 387 kts | 256° |
| 2026-05-09 06:33 | 38.95825 | 116.90803 | 16300 ft | 381 kts | 255° |
| 2026-05-09 06:34 | 38.94380 | 116.84373 | 15376 ft | 374 kts | 255° |
| 2026-05-09 06:34 | 38.93436 | 116.81282 | 14895 ft | 375 kts | 243° |
| 2026-05-09 06:34 | 38.91817 | 116.78627 | 14431 ft | 378 kts | 226° |
| 2026-05-09 06:34 | 38.89680 | 116.76690 | 13974 ft | 381 kts | 210° |
| 2026-05-09 06:35 | 38.87160 | 116.75604 | 13515 ft | 387 kts | 193° |
| 2026-05-09 06:35 | 38.84452 | 116.75510 | 13057 ft | 391 kts | 176° |
| 2026-05-09 06:35 | 38.81838 | 116.76453 | 12611 ft | 394 kts | 159° |
| 2026-05-09 06:35 | 38.79546 | 116.78361 | 12170 ft | 397 kts | 141° |
| 2026-05-09 06:36 | 38.77787 | 116.81093 | 11720 ft | 399 kts | 123° |
| 2026-05-09 06:36 | 38.76756 | 116.84348 | 11288 ft | 401 kts | 105° |
| 2026-05-09 06:36 | 38.76535 | 116.87909 | 10848 ft | 401 kts | 87° |
| 2026-05-09 06:36 | 38.77088 | 116.91371 | 10424 ft | 401 kts | 75° |
| 2026-05-09 06:37 | 38.77899 | 116.94769 | 9987 ft | 399 kts | 73° |
| 2026-05-09 06:37 | 38.78653 | 116.98167 | 9672 ft | 398 kts | 81° |
| 2026-05-09 06:37 | 38.78824 | 117.01690 | 9474 ft | 395 kts | 96° |
| 2026-05-09 06:37 | 38.78323 | 117.05110 | 9287 ft | 389 kts | 111° |
| 2026-05-09 06:38 | 38.77351 | 117.08320 | 9103 ft | 386 kts | 116° |
| 2026-05-09 06:38 | 38.76289 | 117.11449 | 8939 ft | 385 kts | 117° |
| 2026-05-09 06:38 | 38.75219 | 117.14608 | 8732 ft | 384 kts | 117° |
| 2026-05-09 06:38 | 38.74184 | 117.17731 | 8545 ft | 383 kts | 116° |
| 2026-05-09 06:39 | 38.73508 | 117.21032 | 8355 ft | 389 kts | 96° |
| 2026-05-09 06:39 | 38.73859 | 117.24442 | 8167 ft | 393 kts | 72° |
| 2026-05-09 06:39 | 38.75000 | 117.27636 | 7990 ft | 393 kts | 63° |
| 2026-05-09 06:39 | 38.76259 | 117.30718 | 7757 ft | 393 kts | 62° |
| 2026-05-09 06:40 | 38.77511 | 117.33815 | 7534 ft | 392 kts | 63° |
| 2026-05-09 06:40 | 38.78729 | 117.36911 | 7312 ft | 391 kts | 62° |
| 2026-05-09 06:40 | 38.80338 | 117.39696 | 7055 ft | 384 kts | 40° |
| 2026-05-09 06:40 | 38.82583 | 117.41338 | 6790 ft | 367 kts | 13° |
| 2026-05-09 06:41 | 38.85053 | 117.41569 | 6565 ft | 345 kts | 345° |
| 2026-05-09 06:41 | 38.87145 | 117.40431 | 6294 ft | 321 kts | 316° |
| 2026-05-09 06:41 | 38.88616 | 117.38399 | 6042 ft | 306 kts | 304° |
| 2026-05-09 06:41 | 38.90148 | 117.36509 | 5774 ft | 306 kts | 317° |
| 2026-05-09 06:42 | 38.91937 | 117.35040 | 5544 ft | 304 kts | 324° |
| 2026-05-09 06:42 | 38.93802 | 117.33776 | 5296 ft | 299 kts | 327° |
| 2026-05-09 06:42 | 38.95642 | 117.32613 | 5054 ft | 294 kts | 328° |
| 2026-05-09 06:42 | 38.97463 | 117.31485 | 4818 ft | 289 kts | 328° |
| 2026-05-09 06:43 | 38.99271 | 117.30366 | 4565 ft | 283 kts | 328° |
| 2026-05-09 06:43 | 39.01018 | 117.29270 | 4316 ft | 273 kts | 328° |
| 2026-05-09 06:43 | 39.02687 | 117.28210 | 4061 ft | 265 kts | 327° |
| 2026-05-09 06:43 | 39.04330 | 117.27161 | 3796 ft | 258 kts | 328° |
| 2026-05-09 06:44 | 39.05906 | 117.26158 | 3552 ft | 251 kts | 327° |
| 2026-05-09 06:44 | 39.07442 | 117.25179 | 3305 ft | 244 kts | 327° |
| 2026-05-09 06:44 | 39.08953 | 117.24217 | 3057 ft | 237 kts | 327° |
| 2026-05-09 06:44 | 39.10413 | 117.23284 | 2836 ft | 230 kts | 329° |
| 2026-05-09 06:45 | 39.11914 | 117.22713 | 2679 ft | 222 kts | 348° |